sensor_id;sensor_type;location;lat;lon;timestamp;pressure;altitude;pressure_sealevel;temperature
79632;BMP280;69108;41.120;16.874;2023-12-20T00:00:31;101952.63;;;10.28
79632;BMP280;69108;41.120;16.874;2023-12-20T00:02:58;101951.09;;;10.27
79632;BMP280;69108;41.120;16.874;2023-12-20T00:05:25;101952.25;;;10.26
79632;BMP280;69108;41.120;16.874;2023-12-20T00:07:52;101953.41;;;10.25
79632;BMP280;69108;41.120;16.874;2023-12-20T00:10:19;101947.22;;;10.24
79632;BMP280;69108;41.120;16.874;2023-12-20T00:12:46;101944.13;;;10.22
79632;BMP280;69108;41.120;16.874;2023-12-20T00:15:13;101941.03;;;10.20
79632;BMP280;69108;41.120;16.874;2023-12-20T00:17:41;101939.50;;;10.19
79632;BMP280;69108;41.120;16.874;2023-12-20T00:20:08;101937.56;;;10.16
79632;BMP280;69108;41.120;16.874;2023-12-20T00:22:35;101938.34;;;10.17
79632;BMP280;69108;41.120;16.874;2023-12-20T00:25:01;101932.94;;;10.17
79632;BMP280;69108;41.120;16.874;2023-12-20T00:27:28;101923.28;;;10.16
79632;BMP280;69108;41.120;16.874;2023-12-20T00:29:55;101924.47;;;10.15
79632;BMP280;69108;41.120;16.874;2023-12-20T00:32:22;101928.31;;;10.14
79632;BMP280;69108;41.120;16.874;2023-12-20T00:34:50;101917.13;;;10.12
79632;BMP280;69108;41.120;16.874;2023-12-20T00:37:16;101918.28;;;10.07
79632;BMP280;69108;41.120;16.874;2023-12-20T00:39:43;101918.66;;;10.02
79632;BMP280;69108;41.120;16.874;2023-12-20T00:42:10;101920.19;;;10.03
79632;BMP280;69108;41.120;16.874;2023-12-20T00:44:36;101901.69;;;10.02
79632;BMP280;69108;41.120;16.874;2023-12-20T00:47:04;101910.94;;;10.00
79632;BMP280;69108;41.120;16.874;2023-12-20T00:49:30;101912.44;;;9.98
79632;BMP280;69108;41.120;16.874;2023-12-20T00:51:59;101921.34;;;9.98
79632;BMP280;69108;41.120;16.874;2023-12-20T00:54:25;101912.44;;;9.98
79632;BMP280;69108;41.120;16.874;2023-12-20T00:56:52;101903.97;;;9.96
79632;BMP280;69108;41.120;16.874;2023-12-20T00:59:19;101908.22;;;9.97
79632;BMP280;69108;41.120;16.874;2023-12-20T01:01:46;101899.34;;;9.96
79632;BMP280;69108;41.120;16.874;2023-12-20T01:04:12;101898.56;;;9.96
79632;BMP280;69108;41.120;16.874;2023-12-20T01:06:39;101893.56;;;9.94
79632;BMP280;69108;41.120;16.874;2023-12-20T01:09:07;101887.00;;;9.92
79632;BMP280;69108;41.120;16.874;2023-12-20T01:11:34;101887.00;;;9.92
79632;BMP280;69108;41.120;16.874;2023-12-20T01:14:01;101877.75;;;9.89
79632;BMP280;69108;41.120;16.874;2023-12-20T01:16:27;101868.91;;;9.89
79632;BMP280;69108;41.120;16.874;2023-12-20T01:18:54;101862.31;;;9.86
79632;BMP280;69108;41.120;16.874;2023-12-20T01:21:21;101870.41;;;9.86
79632;BMP280;69108;41.120;16.874;2023-12-20T01:23:48;101865.00;;;9.86
79632;BMP280;69108;41.120;16.874;2023-12-20T01:26:16;101848.81;;;9.86
79632;BMP280;69108;41.120;16.874;2023-12-20T01:28:43;101853.47;;;9.86
79632;BMP280;69108;41.120;16.874;2023-12-20T01:31:09;101848.06;;;9.86
79632;BMP280;69108;41.120;16.874;2023-12-20T01:33:36;101847.28;;;9.85
79632;BMP280;69108;41.120;16.874;2023-12-20T01:36:04;101843.06;;;9.84
79632;BMP280;69108;41.120;16.874;2023-12-20T01:38:30;101848.06;;;9.82
79632;BMP280;69108;41.120;16.874;2023-12-20T01:40:57;101846.13;;;9.79
79632;BMP280;69108;41.120;16.874;2023-12-20T01:43:26;101834.94;;;9.77
79632;BMP280;69108;41.120;16.874;2023-12-20T01:45:52;101829.16;;;9.79
79632;BMP280;69108;41.120;16.874;2023-12-20T01:48:19;101832.66;;;9.79
79632;BMP280;69108;41.120;16.874;2023-12-20T01:50:46;101828.03;;;9.80
79632;BMP280;69108;41.120;16.874;2023-12-20T01:53:14;101831.88;;;9.79
79632;BMP280;69108;41.120;16.874;2023-12-20T01:55:42;101826.47;;;9.79
79632;BMP280;69108;41.120;16.874;2023-12-20T01:58:09;101820.72;;;9.77
79632;BMP280;69108;41.120;16.874;2023-12-20T02:00:38;101821.84;;;9.76
79632;BMP280;69108;41.120;16.874;2023-12-20T02:03:05;101812.22;;;9.75
79632;BMP280;69108;41.120;16.874;2023-12-20T02:05:33;101805.28;;;9.74
79632;BMP280;69108;41.120;16.874;2023-12-20T02:07:59;101797.19;;;9.74
79632;BMP280;69108;41.120;16.874;2023-12-20T02:10:27;101791.81;;;9.74
79632;BMP280;69108;41.120;16.874;2023-12-20T02:12:54;101784.50;;;9.74
79632;BMP280;69108;41.120;16.874;2023-12-20T02:15:21;101787.56;;;9.76
79632;BMP280;69108;41.120;16.874;2023-12-20T02:17:49;101782.19;;;9.76
79632;BMP280;69108;41.120;16.874;2023-12-20T02:20:17;101782.19;;;9.76
79632;BMP280;69108;41.120;16.874;2023-12-20T02:22:45;101774.44;;;9.78
79632;BMP280;69108;41.120;16.874;2023-12-20T02:25:12;101782.53;;;9.78
79632;BMP280;69108;41.120;16.874;2023-12-20T02:27:39;101776.00;;;9.79
79632;BMP280;69108;41.120;16.874;2023-12-20T02:30:06;101773.31;;;9.79
79632;BMP280;69108;41.120;16.874;2023-12-20T02:32:33;101775.59;;;9.81
79632;BMP280;69108;41.120;16.874;2023-12-20T02:35:00;101761.38;;;9.80
79632;BMP280;69108;41.120;16.874;2023-12-20T02:37:26;101756.72;;;9.81
79632;BMP280;69108;41.120;16.874;2023-12-20T02:39:55;101754.81;;;9.81
79632;BMP280;69108;41.120;16.874;2023-12-20T02:42:21;101751.31;;;9.81
79632;BMP280;69108;41.120;16.874;2023-12-20T02:44:48;101752.88;;;9.82
79632;BMP280;69108;41.120;16.874;2023-12-20T02:47:15;101737.84;;;9.74
79632;BMP280;69108;41.120;16.874;2023-12-20T02:49:42;101749.41;;;9.81
79632;BMP280;69108;41.120;16.874;2023-12-20T02:52:09;101749.78;;;9.80
79632;BMP280;69108;41.120;16.874;2023-12-20T02:54:35;101749.03;;;9.79
79632;BMP280;69108;41.120;16.874;2023-12-20T02:57:04;101741.28;;;9.78
79632;BMP280;69108;41.120;16.874;2023-12-20T02:59:30;101740.94;;;9.76
79632;BMP280;69108;41.120;16.874;2023-12-20T03:01:57;101745.56;;;9.75
79632;BMP280;69108;41.120;16.874;2023-12-20T03:04:24;101739.78;;;9.73
79632;BMP280;69108;41.120;16.874;2023-12-20T03:06:51;101735.53;;;9.72
79632;BMP280;69108;41.120;16.874;2023-12-20T03:09:17;101737.47;;;9.72
79632;BMP280;69108;41.120;16.874;2023-12-20T03:11:44;101727.81;;;9.71
79632;BMP280;69108;41.120;16.874;2023-12-20T03:14:12;101716.66;;;9.65
79632;BMP280;69108;41.120;16.874;2023-12-20T03:16:39;101722.78;;;9.69
79632;BMP280;69108;41.120;16.874;2023-12-20T03:19:06;101720.88;;;9.70
79632;BMP280;69108;41.120;16.874;2023-12-20T03:21:33;101716.66;;;9.69
79632;BMP280;69108;41.120;16.874;2023-12-20T03:23:59;101701.25;;;9.62
79632;BMP280;69108;41.120;16.874;2023-12-20T03:26:26;101713.56;;;9.67
79632;BMP280;69108;41.120;16.874;2023-12-20T03:28:53;101712.44;;;9.68
79632;BMP280;69108;41.120;16.874;2023-12-20T03:31:21;101712.44;;;9.68
79632;BMP280;69108;41.120;16.874;2023-12-20T03:33:48;101713.22;;;9.68
79632;BMP280;69108;41.120;16.874;2023-12-20T03:36:16;101713.56;;;9.67
79632;BMP280;69108;41.120;16.874;2023-12-20T03:38:43;101701.63;;;9.64
79632;BMP280;69108;41.120;16.874;2023-12-20T03:41:09;101699.31;;;9.66
79632;BMP280;69108;41.120;16.874;2023-12-20T03:43:36;101698.16;;;9.67
79632;BMP280;69108;41.120;16.874;2023-12-20T03:46:03;101700.88;;;9.67
79632;BMP280;69108;41.120;16.874;2023-12-20T03:48:31;101698.53;;;9.69
79632;BMP280;69108;41.120;16.874;2023-12-20T03:50:58;101691.22;;;9.70
79632;BMP280;69108;41.120;16.874;2023-12-20T03:53:25;101691.63;;;9.72
79632;BMP280;69108;41.120;16.874;2023-12-20T03:55:51;101686.59;;;9.74
79632;BMP280;69108;41.120;16.874;2023-12-20T03:58:18;101686.22;;;9.75
79632;BMP280;69108;41.120;16.874;2023-12-20T04:00:45;101682.38;;;9.76
79632;BMP280;69108;41.120;16.874;2023-12-20T04:03:12;101677.75;;;9.77
79632;BMP280;69108;41.120;16.874;2023-12-20T04:05:41;101677.34;;;9.78
79632;BMP280;69108;41.120;16.874;2023-12-20T04:08:08;101661.16;;;9.78
79632;BMP280;69108;41.120;16.874;2023-12-20T04:10:35;101667.72;;;9.77
79632;BMP280;69108;41.120;16.874;2023-12-20T04:13:03;101662.69;;;9.79
79632;BMP280;69108;41.120;16.874;2023-12-20T04:15:30;101660.38;;;9.78
79632;BMP280;69108;41.120;16.874;2023-12-20T04:17:56;101654.97;;;9.78
79632;BMP280;69108;41.120;16.874;2023-12-20T04:20:23;101644.97;;;9.78
79632;BMP280;69108;41.120;16.874;2023-12-20T04:22:51;101658.44;;;9.78
79632;BMP280;69108;41.120;16.874;2023-12-20T04:25:18;101649.22;;;9.79
79632;BMP280;69108;41.120;16.874;2023-12-20T04:27:44;101648.06;;;9.80
79632;BMP280;69108;41.120;16.874;2023-12-20T04:30:12;101644.97;;;9.82
79632;BMP280;69108;41.120;16.874;2023-12-20T04:32:38;101648.44;;;9.82
79632;BMP280;69108;41.120;16.874;2023-12-20T04:35:05;101647.28;;;9.83
79632;BMP280;69108;41.120;16.874;2023-12-20T04:37:32;101653.84;;;9.86
79632;BMP280;69108;41.120;16.874;2023-12-20T04:40:00;101643.41;;;9.88
79632;BMP280;69108;41.120;16.874;2023-12-20T04:42:27;101638.03;;;9.88
79632;BMP280;69108;41.120;16.874;2023-12-20T04:44:53;101633.41;;;9.88
79632;BMP280;69108;41.120;16.874;2023-12-20T04:47:20;101628.78;;;9.89
79632;BMP280;69108;41.120;16.874;2023-12-20T04:49:48;101619.16;;;9.91
79632;BMP280;69108;41.120;16.874;2023-12-20T04:52:14;101615.66;;;9.94
79632;BMP280;69108;41.120;16.874;2023-12-20T04:54:41;101615.25;;;9.96
79632;BMP280;69108;41.120;16.874;2023-12-20T04:57:09;101615.25;;;9.96
79632;BMP280;69108;41.120;16.874;2023-12-20T04:59:36;101611.03;;;9.98
79632;BMP280;69108;41.120;16.874;2023-12-20T05:02:03;101619.91;;;9.99
79632;BMP280;69108;41.120;16.874;2023-12-20T05:04:30;101616.78;;;10.00
79632;BMP280;69108;41.120;16.874;2023-12-20T05:06:57;101607.94;;;10.00
79632;BMP280;69108;41.120;16.874;2023-12-20T05:09:23;101615.28;;;9.99
79632;BMP280;69108;41.120;16.874;2023-12-20T05:11:50;101603.69;;;9.99
79632;BMP280;69108;41.120;16.874;2023-12-20T05:14:18;101601.00;;;9.99
79632;BMP280;69108;41.120;16.874;2023-12-20T05:16:45;101600.59;;;10.00
79632;BMP280;69108;41.120;16.874;2023-12-20T05:19:12;101597.16;;;10.00
79632;BMP280;69108;41.120;16.874;2023-12-20T05:21:39;101599.09;;;9.99
79632;BMP280;69108;41.120;16.874;2023-12-20T05:24:06;101597.16;;;10.00
79632;BMP280;69108;41.120;16.874;2023-12-20T05:26:33;101599.84;;;10.00
79632;BMP280;69108;41.120;16.874;2023-12-20T05:29:00;101592.91;;;9.99
79632;BMP280;69108;41.120;16.874;2023-12-20T05:31:28;101588.28;;;9.99
79632;BMP280;69108;41.120;16.874;2023-12-20T05:33:55;101590.97;;;9.99
79632;BMP280;69108;41.120;16.874;2023-12-20T05:36:22;101591.75;;;10.00
79632;BMP280;69108;41.120;16.874;2023-12-20T05:38:48;101575.94;;;9.98
79632;BMP280;69108;41.120;16.874;2023-12-20T05:41:16;101580.56;;;9.98
79632;BMP280;69108;41.120;16.874;2023-12-20T05:43:42;101586.75;;;9.98
79632;BMP280;69108;41.120;16.874;2023-12-20T05:46:10;101592.13;;;9.98
79632;BMP280;69108;41.120;16.874;2023-12-20T05:48:38;101588.66;;;9.98
79632;BMP280;69108;41.120;16.874;2023-12-20T05:51:05;101589.44;;;9.98
79632;BMP280;69108;41.120;16.874;2023-12-20T05:53:31;101582.13;;;9.99
79632;BMP280;69108;41.120;16.874;2023-12-20T05:55:58;101581.72;;;10.00
79632;BMP280;69108;41.120;16.874;2023-12-20T05:58:25;101584.41;;;10.00
79632;BMP280;69108;41.120;16.874;2023-12-20T06:00:52;101582.50;;;10.01
79632;BMP280;69108;41.120;16.874;2023-12-20T06:03:18;101578.66;;;10.02
79632;BMP280;69108;41.120;16.874;2023-12-20T06:05:47;101590.59;;;10.01
79632;BMP280;69108;41.120;16.874;2023-12-20T06:08:13;101589.44;;;10.02
79632;BMP280;69108;41.120;16.874;2023-12-20T06:10:40;101583.28;;;10.02
79632;BMP280;69108;41.120;16.874;2023-12-20T06:13:07;101577.88;;;10.02
79632;BMP280;69108;41.120;16.874;2023-12-20T06:15:35;101577.47;;;10.03
79632;BMP280;69108;41.120;16.874;2023-12-20T06:18:02;101583.63;;;10.03
79632;BMP280;69108;41.120;16.874;2023-12-20T06:20:29;101571.31;;;10.03
79632;BMP280;69108;41.120;16.874;2023-12-20T06:22:57;101576.31;;;10.04
79632;BMP280;69108;41.120;16.874;2023-12-20T06:25:25;101577.84;;;10.05
79632;BMP280;69108;41.120;16.874;2023-12-20T06:27:52;101568.97;;;10.05
79632;BMP280;69108;41.120;16.874;2023-12-20T06:30:18;101566.28;;;10.05
79632;BMP280;69108;41.120;16.874;2023-12-20T06:32:45;101570.53;;;10.06
79632;BMP280;69108;41.120;16.874;2023-12-20T06:35:13;101565.13;;;10.06
79632;BMP280;69108;41.120;16.874;2023-12-20T06:37:39;101566.66;;;10.07
79632;BMP280;69108;41.120;16.874;2023-12-20T06:40:09;101560.50;;;10.06
79632;BMP280;69108;41.120;16.874;2023-12-20T06:42:36;101560.50;;;10.06
79632;BMP280;69108;41.120;16.874;2023-12-20T06:45:04;101553.94;;;10.07
79632;BMP280;69108;41.120;16.874;2023-12-20T06:47:31;101554.34;;;10.06
79632;BMP280;69108;41.120;16.874;2023-12-20T06:49:58;101559.72;;;10.09
79632;BMP280;69108;41.120;16.874;2023-12-20T06:52:25;101557.00;;;10.09
79632;BMP280;69108;41.120;16.874;2023-12-20T06:54:51;101550.88;;;10.09
79632;BMP280;69108;41.120;16.874;2023-12-20T06:57:20;101557.00;;;10.13
79632;BMP280;69108;41.120;16.874;2023-12-20T06:59:46;101557.41;;;10.15
79632;BMP280;69108;41.120;16.874;2023-12-20T07:02:13;101556.63;;;10.14
79632;BMP280;69108;41.120;16.874;2023-12-20T07:04:40;101558.16;;;10.15
79632;BMP280;69108;41.120;16.874;2023-12-20T07:07:07;101561.63;;;10.16
79632;BMP280;69108;41.120;16.874;2023-12-20T07:09:34;101557.00;;;10.16
79632;BMP280;69108;41.120;16.874;2023-12-20T07:12:00;101559.69;;;10.16
79632;BMP280;69108;41.120;16.874;2023-12-20T07:14:29;101553.53;;;10.19
79632;BMP280;69108;41.120;16.874;2023-12-20T07:16:56;101545.41;;;10.23
79632;BMP280;69108;41.120;16.874;2023-12-20T07:19:22;101550.41;;;10.24
79632;BMP280;69108;41.120;16.874;2023-12-20T07:21:49;101540.38;;;10.25
79632;BMP280;69108;41.120;16.874;2023-12-20T07:24:16;101553.44;;;10.30
79632;BMP280;69108;41.120;16.874;2023-12-20T07:26:43;101549.97;;;10.33
79632;BMP280;69108;41.120;16.874;2023-12-20T07:29:09;101549.59;;;10.34
79632;BMP280;69108;41.120;16.874;2023-12-20T07:31:37;101545.69;;;10.39
79632;BMP280;69108;41.120;16.874;2023-12-20T07:34:04;101540.66;;;10.41
79632;BMP280;69108;41.120;16.874;2023-12-20T07:36:30;101542.59;;;10.44
79632;BMP280;69108;41.120;16.874;2023-12-20T07:38:57;101541.78;;;10.47
79632;BMP280;69108;41.120;16.874;2023-12-20T07:41:24;101539.06;;;10.47
79632;BMP280;69108;41.120;16.874;2023-12-20T07:43:50;101539.84;;;10.51
79632;BMP280;69108;41.120;16.874;2023-12-20T07:46:20;101535.16;;;10.55
79632;BMP280;69108;41.120;16.874;2023-12-20T07:48:50;101521.28;;;10.56
79632;BMP280;69108;41.120;16.874;2023-12-20T07:51:16;101528.94;;;10.61
79632;BMP280;69108;41.120;16.874;2023-12-20T07:53:43;101526.63;;;10.63
79632;BMP280;69108;41.120;16.874;2023-12-20T07:56:16;101532.38;;;10.69
79632;BMP280;69108;41.120;16.874;2023-12-20T07:58:42;101528.88;;;10.72
79632;BMP280;69108;41.120;16.874;2023-12-20T08:01:10;101531.16;;;10.77
79632;BMP280;69108;41.120;16.874;2023-12-20T08:03:37;101535.38;;;10.82
79632;BMP280;69108;41.120;16.874;2023-12-20T08:06:05;101536.88;;;10.86
79632;BMP280;69108;41.120;16.874;2023-12-20T08:08:32;101527.59;;;10.91
79632;BMP280;69108;41.120;16.874;2023-12-20T08:10:59;101523.69;;;10.95
79632;BMP280;69108;41.120;16.874;2023-12-20T08:13:26;101519.81;;;11.00
79632;BMP280;69108;41.120;16.874;2023-12-20T08:15:53;101521.28;;;11.04
79632;BMP280;69108;41.120;16.874;2023-12-20T08:18:21;101516.63;;;11.08
79632;BMP280;69108;41.120;16.874;2023-12-20T08:20:48;101520.47;;;11.14
79632;BMP280;69108;41.120;16.874;2023-12-20T08:23:16;101510.75;;;11.17
79632;BMP280;69108;41.120;16.874;2023-12-20T08:25:43;101511.88;;;11.23
79632;BMP280;69108;41.120;16.874;2023-12-20T08:28:09;101509.88;;;11.27
79632;BMP280;69108;41.120;16.874;2023-12-20T08:30:36;101508.69;;;11.31
79632;BMP280;69108;41.120;16.874;2023-12-20T08:33:03;101503.22;;;11.35
79632;BMP280;69108;41.120;16.874;2023-12-20T08:35:30;101503.53;;;11.40
79632;BMP280;69108;41.120;16.874;2023-12-20T08:37:57;101501.59;;;11.44
79632;BMP280;69108;41.120;16.874;2023-12-20T08:40:25;101499.22;;;11.50
79632;BMP280;69108;41.120;16.874;2023-12-20T08:42:51;101507.63;;;11.55
79632;BMP280;69108;41.120;16.874;2023-12-20T08:45:18;101503.72;;;11.60
79632;BMP280;69108;41.120;16.874;2023-12-20T08:47:45;101500.59;;;11.65
79632;BMP280;69108;41.120;16.874;2023-12-20T08:50:12;101495.88;;;11.69
79632;BMP280;69108;41.120;16.874;2023-12-20T08:52:40;101495.00;;;11.79
79632;BMP280;69108;41.120;16.874;2023-12-20T08:55:07;101494.13;;;11.86
79632;BMP280;69108;41.120;16.874;2023-12-20T08:57:36;101480.50;;;11.93
79632;BMP280;69108;41.120;16.874;2023-12-20T09:00:03;101483.50;;;12.02
79632;BMP280;69108;41.120;16.874;2023-12-20T09:02:32;101468.31;;;12.08
79632;BMP280;69108;41.120;16.874;2023-12-20T09:05:01;101471.69;;;12.15
79632;BMP280;69108;41.120;16.874;2023-12-20T09:07:28;101460.34;;;12.24
79632;BMP280;69108;41.120;16.874;2023-12-20T09:09:57;101450.22;;;12.28
79632;BMP280;69108;41.120;16.874;2023-12-20T09:12:24;101450.81;;;12.39
79632;BMP280;69108;41.120;16.874;2023-12-20T09:14:53;101456.84;;;12.50
79632;BMP280;69108;41.120;16.874;2023-12-20T09:17:20;101458.13;;;12.65
79632;BMP280;69108;41.120;16.874;2023-12-20T09:19:48;101453.09;;;12.87
79632;BMP280;69108;41.120;16.874;2023-12-20T09:22:17;101445.75;;;13.26
79632;BMP280;69108;41.120;16.874;2023-12-20T09:24:44;101432.50;;;13.84
79632;BMP280;69108;41.120;16.874;2023-12-20T09:27:11;101437.38;;;14.53
79632;BMP280;69108;41.120;16.874;2023-12-20T09:29:38;101425.00;;;15.09
79632;BMP280;69108;41.120;16.874;2023-12-20T09:32:06;101419.13;;;15.61
79632;BMP280;69108;41.120;16.874;2023-12-20T09:34:33;101421.03;;;16.11
79632;BMP280;69108;41.120;16.874;2023-12-20T09:37:00;101418.06;;;16.52
79632;BMP280;69108;41.120;16.874;2023-12-20T09:39:28;101403.16;;;16.87
79632;BMP280;69108;41.120;16.874;2023-12-20T09:42:00;101394.97;;;17.18
79632;BMP280;69108;41.120;16.874;2023-12-20T09:44:27;101398.56;;;17.46
79632;BMP280;69108;41.120;16.874;2023-12-20T09:46:55;101392.69;;;17.65
79632;BMP280;69108;41.120;16.874;2023-12-20T09:49:25;101394.41;;;17.81
79632;BMP280;69108;41.120;16.874;2023-12-20T09:51:54;101390.47;;;17.91
79632;BMP280;69108;41.120;16.874;2023-12-20T09:54:21;101378.63;;;17.94
79632;BMP280;69108;41.120;16.874;2023-12-20T09:56:49;101376.47;;;17.98
79632;BMP280;69108;41.120;16.874;2023-12-20T09:59:16;101368.44;;;17.94
79632;BMP280;69108;41.120;16.874;2023-12-20T10:01:43;101367.84;;;17.90
79632;BMP280;69108;41.120;16.874;2023-12-20T10:04:10;101360.41;;;17.91
79632;BMP280;69108;41.120;16.874;2023-12-20T10:06:41;101361.94;;;17.92
79632;BMP280;69108;41.120;16.874;2023-12-20T10:09:08;101358.72;;;17.93
79632;BMP280;69108;41.120;16.874;2023-12-20T10:11:35;101355.53;;;17.95
79632;BMP280;69108;41.120;16.874;2023-12-20T10:14:04;101349.16;;;17.98
79632;BMP280;69108;41.120;16.874;2023-12-20T10:16:31;101346.16;;;18.05
79632;BMP280;69108;41.120;16.874;2023-12-20T10:18:59;101347.66;;;18.15
79632;BMP280;69108;41.120;16.874;2023-12-20T10:21:26;101333.97;;;18.24
79632;BMP280;69108;41.120;16.874;2023-12-20T10:23:55;101327.56;;;18.27
79632;BMP280;69108;41.120;16.874;2023-12-20T10:26:23;101328.81;;;18.08
79632;BMP280;69108;41.120;16.874;2023-12-20T10:28:50;101318.66;;;17.72
79632;BMP280;69108;41.120;16.874;2023-12-20T10:31:26;101310.97;;;17.40
79632;BMP280;69108;41.120;16.874;2023-12-20T10:33:53;101303.94;;;17.12
79632;BMP280;69108;41.120;16.874;2023-12-20T10:36:23;101298.84;;;16.83
79632;BMP280;69108;41.120;16.874;2023-12-20T10:38:52;101303.91;;;16.63
79632;BMP280;69108;41.120;16.874;2023-12-20T10:41:25;101305.00;;;16.44
79632;BMP280;69108;41.120;16.874;2023-12-20T10:43:54;101298.22;;;16.27
79632;BMP280;69108;41.120;16.874;2023-12-20T10:46:21;101296.00;;;16.13
79632;BMP280;69108;41.120;16.874;2023-12-20T10:48:51;101291.25;;;16.04
79632;BMP280;69108;41.120;16.874;2023-12-20T10:51:18;101294.66;;;15.96
79632;BMP280;69108;41.120;16.874;2023-12-20T10:53:47;101284.44;;;15.87
79632;BMP280;69108;41.120;16.874;2023-12-20T10:56:16;101286.22;;;15.81
79632;BMP280;69108;41.120;16.874;2023-12-20T10:58:45;101282.53;;;15.75
79632;BMP280;69108;41.120;16.874;2023-12-20T11:01:13;101282.66;;;15.72
79632;BMP280;69108;41.120;16.874;2023-12-20T11:03:44;101264.47;;;15.69
79632;BMP280;69108;41.120;16.874;2023-12-20T11:06:22;101269.56;;;15.67
79632;BMP280;69108;41.120;16.874;2023-12-20T11:08:58;101262.63;;;15.66
79632;BMP280;69108;41.120;16.874;2023-12-20T11:11:39;101259.91;;;15.66
79632;BMP280;69108;41.120;16.874;2023-12-20T11:14:11;101254.91;;;15.64
79632;BMP280;69108;41.120;16.874;2023-12-20T11:16:41;101251.72;;;15.66
79632;BMP280;69108;41.120;16.874;2023-12-20T11:19:07;101247.38;;;15.68
79632;BMP280;69108;41.120;16.874;2023-12-20T11:21:34;101245.72;;;15.71
79632;BMP280;69108;41.120;16.874;2023-12-20T11:24:01;101237.66;;;15.67
79632;BMP280;69108;41.120;16.874;2023-12-20T11:26:29;101233.97;;;15.74
79632;BMP280;69108;41.120;16.874;2023-12-20T11:32:29;101227.81;;;15.82
79632;BMP280;69108;41.120;16.874;2023-12-20T11:34:57;101228.91;;;15.85
79632;BMP280;69108;41.120;16.874;2023-12-20T11:37:28;101228.91;;;15.85
79632;BMP280;69108;41.120;16.874;2023-12-20T11:39:56;101214.09;;;15.86
79632;BMP280;69108;41.120;16.874;2023-12-20T11:42:27;101222.44;;;15.91
79632;BMP280;69108;41.120;16.874;2023-12-20T11:44:55;101218.38;;;15.96
79632;BMP280;69108;41.120;16.874;2023-12-20T11:47:22;101213.88;;;16.02
79632;BMP280;69108;41.120;16.874;2023-12-20T11:49:50;101203.94;;;16.08
79632;BMP280;69108;41.120;16.874;2023-12-20T11:52:17;101205.63;;;16.14
79632;BMP280;69108;41.120;16.874;2023-12-20T11:54:44;101206.91;;;16.23
79632;BMP280;69108;41.120;16.874;2023-12-20T11:57:11;101199.69;;;16.29
79632;BMP280;69108;41.120;16.874;2023-12-20T11:59:37;101195.59;;;16.33
79632;BMP280;69108;41.120;16.874;2023-12-20T12:02:04;101191.97;;;16.36
79632;BMP280;69108;41.120;16.874;2023-12-20T12:04:31;101186.53;;;16.36
79632;BMP280;69108;41.120;16.874;2023-12-20T12:06:58;101178.34;;;16.36
79632;BMP280;69108;41.120;16.874;2023-12-20T12:09:25;101175.03;;;16.41
79632;BMP280;69108;41.120;16.874;2023-12-20T12:11:52;101165.47;;;16.37
79632;BMP280;69108;41.120;16.874;2023-12-20T12:14:18;101164.47;;;16.43
79632;BMP280;69108;41.120;16.874;2023-12-20T12:16:46;101159.28;;;16.45
79632;BMP280;69108;41.120;16.874;2023-12-20T12:19:20;101165.97;;;16.44
79632;BMP280;69108;41.120;16.874;2023-12-20T12:21:47;101162.47;;;16.44
79632;BMP280;69108;41.120;16.874;2023-12-20T12:24:16;101160.81;;;16.46
79632;BMP280;69108;41.120;16.874;2023-12-20T12:26:50;101156.28;;;16.43
79632;BMP280;69108;41.120;16.874;2023-12-20T12:29:17;101156.88;;;16.47
79632;BMP280;69108;41.120;16.874;2023-12-20T12:31:43;101155.69;;;16.48
79632;BMP280;69108;41.120;16.874;2023-12-20T12:34:10;101162.66;;;16.49
79632;BMP280;69108;41.120;16.874;2023-12-20T12:36:37;101153.72;;;16.49
79632;BMP280;69108;41.120;16.874;2023-12-20T12:39:05;101155.38;;;16.46
79632;BMP280;69108;41.120;16.874;2023-12-20T12:41:33;101139.16;;;16.43
79632;BMP280;69108;41.120;16.874;2023-12-20T12:44:00;101142.19;;;16.45
79632;BMP280;69108;41.120;16.874;2023-12-20T12:46:26;101142.19;;;16.45
79632;BMP280;69108;41.120;16.874;2023-12-20T12:48:53;101146.88;;;16.44
79632;BMP280;69108;41.120;16.874;2023-12-20T12:51:20;101132.78;;;16.46
79632;BMP280;69108;41.120;16.874;2023-12-20T12:53:46;101136.75;;;16.45
79632;BMP280;69108;41.120;16.874;2023-12-20T12:56:13;101139.03;;;16.46
79632;BMP280;69108;41.120;16.874;2023-12-20T12:58:42;101134.75;;;16.45
79632;BMP280;69108;41.120;16.874;2023-12-20T13:01:09;101133.72;;;16.43
79632;BMP280;69108;41.120;16.874;2023-12-20T13:03:35;101122.81;;;16.43
79632;BMP280;69108;41.120;16.874;2023-12-20T13:06:03;101125.66;;;16.39
79632;BMP280;69108;41.120;16.874;2023-12-20T13:08:31;101112.28;;;16.32
79632;BMP280;69108;41.120;16.874;2023-12-20T13:10:58;101116.97;;;16.23
79632;BMP280;69108;41.120;16.874;2023-12-20T13:13:26;101108.44;;;16.11
79632;BMP280;69108;41.120;16.874;2023-12-20T13:15:54;101107.94;;;16.04
79632;BMP280;69108;41.120;16.874;2023-12-20T13:18:21;101107.31;;;16.00
79632;BMP280;69108;41.120;16.874;2023-12-20T13:20:48;101102.00;;;15.96
79632;BMP280;69108;41.120;16.874;2023-12-20T13:23:15;101105.19;;;15.95
79632;BMP280;69108;41.120;16.874;2023-12-20T13:25:43;101093.94;;;15.93
79632;BMP280;69108;41.120;16.874;2023-12-20T13:28:11;101095.47;;;15.94
79632;BMP280;69108;41.120;16.874;2023-12-20T13:30:38;101093.06;;;15.96
79632;BMP280;69108;41.120;16.874;2023-12-20T13:33:06;101101.13;;;15.99
79632;BMP280;69108;41.120;16.874;2023-12-20T13:35:34;101093.25;;;16.01
79632;BMP280;69108;41.120;16.874;2023-12-20T13:38:01;101099.34;;;16.05
79632;BMP280;69108;41.120;16.874;2023-12-20T13:40:27;101094.66;;;16.06
79632;BMP280;69108;41.120;16.874;2023-12-20T13:42:55;101092.25;;;16.08
79632;BMP280;69108;41.120;16.874;2023-12-20T13:45:21;101078.31;;;16.06
79632;BMP280;69108;41.120;16.874;2023-12-20T13:47:48;101080.13;;;16.09
79632;BMP280;69108;41.120;16.874;2023-12-20T13:50:17;101079.66;;;16.10
79632;BMP280;69108;41.120;16.874;2023-12-20T13:52:44;101082.38;;;16.10